KTPH

Details ICAO KTPH
Name TONOPAH
Region United States
Timezone America/Los_Angeles (UTC-7.0)
Plans Departing 12
Arriving 16
Stats Elevation 5,426 ft / 1,654 m (AMSL)
Location 38.060522° -117.086804°
Runways 2
Magnetic Variation 12.471° E
Sunrise 2018-05-26 12:31:29 UTC / 2018-05-26 05:31:29 Local
Sunset 2018-05-27 03:02:15 UTC / 2018-05-26 20:02:15 Local
Advertisement - Login to hide

Runways

ID Width Length Bearing (true) Bearing (mag) Surface Threshold Offset Overrun Length
11 50 ft / 15 m 5,460 ft / 1,664 m 125.09° 112.62° Asphalt 0 ft / 0 m 0 ft / 0 m
15 80 ft / 24 m 7,070 ft / 2,155 m 165.03° 152.56° Asphalt 0 ft / 0 m 0 ft / 0 m
29 50 ft / 15 m 5,460 ft / 1,664 m 305.10° 292.63° Asphalt 0 ft / 0 m 0 ft / 0 m
33 80 ft / 24 m 7,070 ft / 2,155 m 345.03° 332.56° Asphalt 0 ft / 0 m 1,655 ft / 504 m

Map

Weather


0- 5 10 15 20 25 30 35+ Temperature / ° C

Clouds and Precipitation
Forecast for 2018-05-26 06:00 UTC. Updated 3 hours ago

Ground ~20,000 ft ~40,000 ft Winds

METAR

KTPH 260756Z AUTO 31018G22KT 10SM CLR 11/05 A2995 RMK AO2 SLP085 T01060050 402390100

TAF

TAF KTPH 260520Z 2606/2706 33011KT P6SM VCSH FEW050 SCT080 BKN200 FM261800 32015G28KT P6SM VCTS SCT040CB BKN060 TEMPO 2622/2702 VRB18G35KT -TSRA BKN050CB FM270200 31005KT P6SM VCSH SCT060 BKN120

Frequencies

Recorded 118.87 MHz ASOS
Unicom 123.00 MHz CTAF/UNICOM
Warning: Do not use this data for real-world aviation or navigation. No guarantee of current accuracy is given.